Garden City Regional Airport
KGCK : now visible

Airfield :











YOU CAN JOIN US ON...

 
LOGIN :

Register | Disclaimer

   EN    FR    IT 

 









Legend :    VFR   Marginal VFR   IFR   Intensive IFR   Very Intensive IFR
Visi :
Ceiling :
>= 8 km
>= 3000ft
5 to 8 km
1000 to 3000 ft
1500m to 5 km
500 to 1000 ft
800 to 1500m
200 to 500 ft
< 800m
< 200 ft
Symbols :   Thunderstorms  Fog  Heavy snow  Heavy precipitations  Wind > 20 kt






- Airport Elevation : 2891 ft
- IATA code : GCK


KGCK - Garden City Regional

CURRENT METAR :
  • 061654Z VRB05KT 10SM OVC010 01/M02 A3038 RMK AO2 SLP303 T00061017

EXPIRED METARs :
  • 061609Z 36006KT 10SM OVC010 00/M02 A3039 RMK AO2 T00001022
  • 061554Z 35006KT 10SM OVC009 00/M02 A3040 RMK AO2 SLP306 T00001022
  • 061454Z 01008KT 10SM OVC009 M01/M02 A3037 RMK AO2 SLP297 T10061022 51018

TAF KGCK
Valid from the 06 at 18:00 until the 07 at 18:00 UTC


061720Z 0618/0718 36006KT P6SM OVC010
FM071700 19012G22KT P6SM FEW250



MET'MAP, your aeronautical weather chart ! - Copyright ORBIFLY December 2007 - Disclaimer

ORBIFLY MET'MAP TEAM :

Programming & Development : Alexandra Zaïnal
Concept & original design : Baudouin d'Aumeries
Assistance for programming : Marc-Olivier Méhu
Technical & hardware support : Manuel Goepfert

Contact : metmap@orbifly.com




SOURCES & CREDITS :

   NOAA       Earth
Advisory